Station Historical Data
Daily Summary for February 20, 2017 Units:  English    Metric   Both
Next Day »
Daily Weekly Monthly Yearly Custom
  High: Low: Average:
Temperature: 48.2 °F 44.8 °F 46.6 °F
Dew Point: 46.8 °F 43.2 °F 45 °F
Humidity: 95% 93% 94%
Wind Speed: 35.0mph 0.0mph 9.6mph
Wind Gust: 43.0mph - -
Wind- - South
Pressure: 30.07 in 29.92 in -
Precipitation: 0.00 in    
Historical Graphs
 
 
Tabular Data for February 20, 2017
Time Temperature Dew Point Pressure Wind Wind Speed Wind Gust Humidity Rainfall Rate (Hourly) solar Conditions
00:04 45.7 °F 43.8 °F 29.97 in SE 13.0 mph 24.0 mph 93% 0.00 in 0.00 W/m2
00:09 45.7 °F 43.8 °F 29.96 in SSE 7.0 mph 18.0 mph 93% 0.00 in 0.00 W/m2
00:14 45.8 °F 43.9 °F 29.96 in SSE 15.0 mph 23.0 mph 93% 0.00 in 0.00 W/m2
00:19 45.8 °F 43.9 °F 29.96 in South 13.0 mph 25.0 mph 93% 0.00 in 0.00 W/m2
00:24 45.9 °F 44.0 °F 29.97 in South 15.0 mph 15.0 mph 93% 0.00 in 0.00 W/m2
00:29 46.0 °F 44.1 °F 29.97 in South 13.0 mph 18.0 mph 93% 0.00 in 0.00 W/m2
00:34 46.1 °F 44.2 °F 29.97 in SSE 11.0 mph 15.0 mph 93% 0.00 in 0.00 W/m2
00:39 46.1 °F 44.2 °F 29.96 in South 11.0 mph 18.0 mph 93% 0.00 in 0.00 W/m2
00:44 46.1 °F 44.2 °F 29.95 in SSE 6.0 mph 20.0 mph 93% 0.00 in 0.00 W/m2
00:49 46.1 °F 44.2 °F 29.95 in SSE 2.0 mph 20.0 mph 93% 0.00 in 0.00 W/m2
00:54 46.1 °F 44.2 °F 29.94 in SE 7.0 mph 14.0 mph 93% 0.00 in 0.00 W/m2
00:59 46.0 °F 44.1 °F 29.94 in SSE 17.0 mph 20.0 mph 93% 0.00 in 0.00 W/m2
01:01 46.0 °F 44.4 °F 29.94 in SSE 10.0 mph 20.0 mph 94% 0.00 in 0.00 W/m2
01:06 45.9 °F 44.3 °F 29.94 in South 17.0 mph 26.0 mph 94% 0.00 in 0.00 W/m2
01:11 45.9 °F 44.3 °F 29.93 in SSE 18.0 mph 26.0 mph 94% 0.00 in 0.00 W/m2
01:16 45.9 °F 44.0 °F 29.93 in SSE 10.0 mph 29.0 mph 93% 0.00 in 0.00 W/m2
01:21 45.9 °F 44.0 °F 29.93 in SE 6.0 mph 22.0 mph 93% 0.00 in 0.00 W/m2
01:25 45.9 °F 44.0 °F 29.93 in SSE 10.0 mph 24.0 mph 93% 0.00 in 0.00 W/m2
01:30 45.9 °F 44.0 °F 29.93 in South 7.0 mph 27.0 mph 93% 0.00 in 0.00 W/m2
01:35 45.9 °F 44.0 °F 29.94 in SSE 12.0 mph 24.0 mph 93% 0.00 in 0.00 W/m2
01:41 45.9 °F 44.0 °F 29.93 in South 11.0 mph 24.0 mph 93% 0.00 in 0.00 W/m2
01:46 46.0 °F 44.1 °F 29.93 in SSE 12.0 mph 20.0 mph 93% 0.20 in 0.00 W/m2
01:51 46.0 °F 44.1 °F 29.92 in SE 11.0 mph 28.0 mph 93% 0.15 in 0.00 W/m2
01:56 46.1 °F 44.2 °F 29.93 in SE 8.0 mph 20.0 mph 93% 0.14 in 0.00 W/m2
02:01 46.2 °F 44.3 °F 29.94 in South 12.0 mph 17.0 mph 93% 0.15 in 0.00 W/m2
02:06 46.2 °F 44.3 °F 29.95 in SW 7.0 mph 17.0 mph 93% 0.12 in 0.00 W/m2
02:11 46.2 °F 44.3 °F 29.96 in South 5.0 mph 11.0 mph 93% 0.22 in 0.00 W/m2
02:16 46.2 °F 44.3 °F 29.95 in South 10.0 mph 13.0 mph 93% 0.19 in 0.00 W/m2
02:21 46.2 °F 44.3 °F 29.94 in South 11.0 mph 18.0 mph 93% 0.16 in 0.00 W/m2
02:26 46.2 °F 44.3 °F 29.94 in South 7.0 mph 18.0 mph 93% 0.13 in 0.00 W/m2
02:31 46.2 °F 44.3 °F 29.94 in South 8.0 mph 23.0 mph 93% 0.16 in 0.00 W/m2
02:36 46.2 °F 44.3 °F 29.94 in South 11.0 mph 21.0 mph 93% 0.16 in 0.00 W/m2
02:41 46.3 °F 44.4 °F 29.95 in South 10.0 mph 20.0 mph 93% 0.16 in 0.00 W/m2
02:46 46.3 °F 44.4 °F 29.96 in South 13.0 mph 21.0 mph 93% 0.19 in 0.00 W/m2
02:51 46.2 °F 44.3 °F 29.95 in SSW 20.0 mph 22.0 mph 93% 0.28 in 0.00 W/m2
02:56 46.2 °F 44.3 °F 29.95 in SSW 14.0 mph 33.0 mph 93% 0.22 in 0.00 W/m2
03:01 46.2 °F 44.3 °F 29.93 in SSE 19.0 mph 26.0 mph 93% 0.25 in 0.00 W/m2
03:06 46.2 °F 44.3 °F 29.93 in SSE 14.0 mph 28.0 mph 93% 0.13 in 0.00 W/m2
03:11 46.2 °F 44.3 °F 29.93 in SSW 10.0 mph 28.0 mph 93% 0.06 in 0.00 W/m2
03:16 46.2 °F 44.3 °F 29.94 in South 14.0 mph 26.0 mph 93% 0.04 in 0.00 W/m2
03:21 46.3 °F 44.4 °F 29.94 in SSE 6.0 mph 30.0 mph 93% 0.00 in 0.00 W/m2
03:26 46.3 °F 44.4 °F 29.94 in SE 17.0 mph 17.0 mph 93% 0.00 in 0.00 W/m2
03:31 46.4 °F 44.5 °F 29.94 in South 13.0 mph 13.0 mph 93% 0.06 in 0.00 W/m2
03:36 46.5 °F 44.6 °F 29.94 in South 17.0 mph 23.0 mph 93% 0.06 in 0.00 W/m2
03:41 46.5 °F 44.6 °F 29.94 in SSW 10.0 mph 17.0 mph 93% 0.10 in 0.00 W/m2
03:46 46.6 °F 44.7 °F 29.94 in South 9.0 mph 14.0 mph 93% 0.10 in 0.00 W/m2
03:51 46.7 °F 44.8 °F 29.94 in SSE 11.0 mph 17.0 mph 93% 0.12 in 0.00 W/m2
03:56 46.8 °F 44.9 °F 29.94 in South 19.0 mph 19.0 mph 93% 0.20 in 0.00 W/m2
04:01 46.9 °F 45.0 °F 29.94 in SSE 15.0 mph 17.0 mph 93% 0.22 in 0.00 W/m2
04:06 46.9 °F 45.0 °F 29.95 in SSW 8.0 mph 10.0 mph 93% 0.17 in 0.00 W/m2
04:11 47.0 °F 45.1 °F 29.95 in SSE 18.0 mph 19.0 mph 93% 0.51 in 0.00 W/m2
04:16 47.0 °F 45.4 °F 29.96 in SSW 6.0 mph 12.0 mph 94% 0.37 in 0.00 W/m2
04:21 47.1 °F 45.5 °F 29.96 in SSW 7.0 mph 8.0 mph 94% 0.34 in 0.00 W/m2
04:26 47.1 °F 45.5 °F 29.96 in South 6.0 mph 10.0 mph 94% 0.31 in 0.00 W/m2
04:31 47.1 °F 45.5 °F 29.95 in South 7.0 mph 16.0 mph 94% 0.25 in 0.00 W/m2
04:36 47.1 °F 45.5 °F 29.95 in South 18.0 mph 27.0 mph 94% 0.24 in 0.00 W/m2
04:41 47.3 °F 45.7 °F 29.96 in SSE 5.0 mph 6.0 mph 94% 0.25 in 0.00 W/m2
04:46 47.4 °F 45.8 °F 29.96 in South 18.0 mph 18.0 mph 94% 0.21 in 0.00 W/m2
04:51 47.5 °F 45.9 °F 29.96 in South 12.0 mph 20.0 mph 94% 0.31 in 0.00 W/m2
04:56 47.5 °F 45.9 °F 29.96 in SSE 21.0 mph 21.0 mph 94% 0.24 in 0.00 W/m2
05:01 47.6 °F 46.0 °F 29.96 in SSE 7.0 mph 21.0 mph 94% 0.23 in 0.00 W/m2
05:06 47.6 °F 46.0 °F 29.96 in SSE 6.0 mph 10.0 mph 94% 0.25 in 0.00 W/m2
05:11 47.7 °F 46.1 °F 29.96 in South 7.0 mph 10.0 mph 94% 0.17 in 0.00 W/m2
05:16 47.7 °F 46.1 °F 29.97 in SSW 7.0 mph 9.0 mph 94% 0.14 in 0.00 W/m2
05:21 47.7 °F 46.1 °F 29.96 in SSE 10.0 mph 10.0 mph 94% 0.19 in 0.00 W/m2
05:26 47.7 °F 46.1 °F 29.96 in SSW 14.0 mph 14.0 mph 94% 0.15 in 0.00 W/m2
05:31 47.7 °F 46.1 °F 29.95 in SE 5.0 mph 11.0 mph 94% 0.15 in 0.00 W/m2
05:36 47.7 °F 46.1 °F 29.95 in South 9.0 mph 11.0 mph 94% 0.13 in 0.00 W/m2
05:41 47.7 °F 46.1 °F 29.95 in SSE 7.0 mph 8.0 mph 94% 0.18 in 0.00 W/m2
05:46 47.7 °F 46.1 °F 29.95 in SSE 7.0 mph 10.0 mph 94% 0.26 in 0.00 W/m2
05:51 47.7 °F 46.1 °F 29.95 in SSE 9.0 mph 9.0 mph 94% 0.25 in 0.00 W/m2
05:56 47.7 °F 46.1 °F 29.95 in South 11.0 mph 11.0 mph 94% 0.18 in 0.00 W/m2
06:01 47.7 °F 46.1 °F 29.96 in South 11.0 mph 14.0 mph 94% 0.21 in 0.00 W/m2
06:06 47.7 °F 46.1 °F 29.96 in SSW 7.0 mph 11.0 mph 94% 0.29 in 0.00 W/m2
06:12 47.8 °F 46.2 °F 29.96 in Calm   8.0 mph 94% 0.44 in 0.00 W/m2
06:17 47.8 °F 46.2 °F 29.96 in WSW 4.0 mph 7.0 mph 94% 0.34 in 0.00 W/m2
06:22 47.7 °F 46.1 °F 29.97 in SW 5.0 mph 12.0 mph 94% 0.43 in 0.00 W/m2
06:27 47.7 °F 46.1 °F 29.97 in Calm   6.0 mph 94% 0.30 in 0.00 W/m2
06:32 47.7 °F 46.1 °F 29.98 in Calm   3.0 mph 94% 0.30 in 0.00 W/m2
06:37 47.6 °F 46.0 °F 29.99 in SSW 4.0 mph 15.0 mph 94% 0.51 in 0.00 W/m2
06:42 47.6 °F 46.0 °F 29.99 in WSW 4.0 mph 9.0 mph 94% 0.30 in 0.00 W/m2
06:47 47.5 °F 45.9 °F 29.99 in WSW 8.0 mph 13.0 mph 94% 0.12 in 0.00 W/m2
06:52 47.4 °F 45.8 °F 30.00 in Calm   10.0 mph 94% 0.27 in 0.00 W/m2
06:57 47.4 °F 45.8 °F 30.00 in SW 3.0 mph 14.0 mph 94% 0.20 in 0.00 W/m2
07:02 47.3 °F 45.7 °F 30.00 in SSW 5.0 mph 9.0 mph 94% 0.14 in 0.00 W/m2
07:07 47.3 °F 45.7 °F 30.00 in Calm     94% 0.70 in 5.00 W/m2
07:12 47.2 °F 45.6 °F 29.99 in South 4.0 mph 7.0 mph 94% 0.24 in 5.00 W/m2
07:17 47.2 °F 45.6 °F 30.00 in SW 12.0 mph 16.0 mph 94% 0.17 in 0.00 W/m2
07:22 47.2 °F 45.6 °F 30.00 in South 12.0 mph 15.0 mph 94% 0.17 in 0.00 W/m2
07:27 47.2 °F 45.6 °F 30.00 in SSW 5.0 mph 7.0 mph 94% 0.14 in 0.00 W/m2
07:32 47.2 °F 45.6 °F 30.00 in SW 5.0 mph 13.0 mph 94% 0.10 in 0.00 W/m2
07:37 47.3 °F 45.7 °F 30.00 in South 11.0 mph 13.0 mph 94% 0.14 in 5.00 W/m2
07:42 47.2 °F 45.6 °F 30.00 in South 11.0 mph 14.0 mph 94% 0.12 in 7.00 W/m2
07:47 47.2 °F 45.6 °F 30.01 in SW 6.0 mph 15.0 mph 94% 0.13 in 5.00 W/m2
07:52 47.2 °F 45.6 °F 30.01 in South 8.0 mph 15.0 mph 94% 0.08 in 7.00 W/m2
07:57 47.3 °F 45.7 °F 30.01 in South 9.0 mph 14.0 mph 94% 0.12 in 7.00 W/m2
08:02 47.2 °F 45.6 °F 30.01 in South 10.0 mph 21.0 mph 94% 0.09 in 5.00 W/m2
08:07 47.3 °F 45.7 °F 30.02 in SSW 14.0 mph 22.0 mph 94% 0.09 in 7.00 W/m2
08:12 47.3 °F 45.7 °F 30.02 in WSW 15.0 mph 20.0 mph 94% 0.12 in 16.00 W/m2
08:17 47.3 °F 45.7 °F 30.02 in SSW 5.0 mph 16.0 mph 94% 0.12 in 14.00 W/m2
08:22 47.3 °F 45.7 °F 30.02 in SW 10.0 mph 22.0 mph 94% 0.09 in 16.00 W/m2
08:27 47.4 °F 45.8 °F 30.02 in SSW 15.0 mph 15.0 mph 94% 0.08 in 14.00 W/m2
08:32 47.4 °F 45.8 °F 30.02 in South 10.0 mph 12.0 mph 94% 0.06 in 16.00 W/m2
08:37 47.4 °F 45.8 °F 30.03 in SSW 10.0 mph 14.0 mph 94% 0.13 in 12.00 W/m2
08:42 47.3 °F 45.7 °F 30.02 in SSW 11.0 mph 11.0 mph 94% 0.12 in 14.00 W/m2
08:47 47.3 °F 45.7 °F 30.02 in SSE 7.0 mph 16.0 mph 94% 0.12 in 16.00 W/m2
08:52 47.3 °F 45.7 °F 30.03 in SSW 15.0 mph 15.0 mph 94% 0.10 in 16.00 W/m2
08:57 47.3 °F 45.7 °F 30.03 in SSW 10.0 mph 14.0 mph 94% 0.10 in 14.00 W/m2
09:02 47.3 °F 45.7 °F 30.03 in SSW 4.0 mph 16.0 mph 94% 0.13 in 18.00 W/m2
09:08 47.3 °F 45.7 °F 30.03 in South 10.0 mph 12.0 mph 94% 0.12 in 14.00 W/m2
09:13 47.3 °F 45.7 °F 30.03 in SSW 11.0 mph 16.0 mph 94% 0.12 in 19.00 W/m2
09:18 47.2 °F 45.6 °F 30.03 in SW 5.0 mph 12.0 mph 94% 0.10 in 16.00 W/m2
09:23 47.2 °F 45.6 °F 30.04 in South 6.0 mph 13.0 mph 94% 0.15 in 18.00 W/m2
09:28 47.2 °F 45.6 °F 30.03 in South 5.0 mph 15.0 mph 94% 0.14 in 21.00 W/m2
09:33 47.2 °F 45.6 °F 30.03 in SSE 6.0 mph 13.0 mph 94% 0.14 in 18.00 W/m2
09:38 47.2 °F 45.6 °F 30.03 in SSE 17.0 mph 21.0 mph 94% 0.09 in 30.00 W/m2
09:43 47.1 °F 45.5 °F 30.03 in SE 6.0 mph 16.0 mph 94% 0.08 in 21.00 W/m2
09:47 47.1 °F 45.5 °F 30.02 in SE 15.0 mph 20.0 mph 94% 0.10 in 26.00 W/m2
09:53 47.1 °F 45.5 °F 30.03 in South 7.0 mph 14.0 mph 94% 0.10 in 21.00 W/m2
09:58 47.1 °F 45.5 °F 30.03 in SSE 16.0 mph 16.0 mph 94% 0.06 in 32.00 W/m2
10:03 47.0 °F 45.4 °F 30.03 in South 11.0 mph 14.0 mph 94% 0.06 in 19.00 W/m2
10:08 47.0 °F 45.4 °F 30.03 in SSW 10.0 mph 13.0 mph 94% 0.07 in 18.00 W/m2
10:13 47.0 °F 45.4 °F 30.02 in SSE 11.0 mph 14.0 mph 94% 0.07 in 30.00 W/m2
10:18 47.0 °F 45.4 °F 30.03 in SSE 4.0 mph 15.0 mph 94% 0.08 in 23.00 W/m2
10:23 47.0 °F 45.4 °F 30.04 in South 8.0 mph 16.0 mph 94% 0.07 in 23.00 W/m2
10:28 46.9 °F 45.3 °F 30.03 in SE 9.0 mph 14.0 mph 94% 0.07 in 35.00 W/m2
10:33 46.9 °F 45.3 °F 30.04 in South 8.0 mph 16.0 mph 94% 0.07 in 30.00 W/m2
10:38 46.9 °F 45.3 °F 30.04 in SSE 12.0 mph 18.0 mph 94% 0.13 in 35.00 W/m2
10:43 46.9 °F 45.3 °F 30.03 in South 9.0 mph 14.0 mph 94% 0.16 in 28.00 W/m2
10:48 46.9 °F 45.3 °F 30.03 in South 14.0 mph 17.0 mph 94% 0.15 in 33.00 W/m2
10:53 46.9 °F 45.3 °F 30.04 in SSW 6.0 mph 15.0 mph 94% 0.16 in 33.00 W/m2
10:58 46.8 °F 45.2 °F 30.04 in SSE 8.0 mph 16.0 mph 94% 0.14 in 40.00 W/m2
11:03 46.8 °F 45.2 °F 30.05 in SSW 7.0 mph 19.0 mph 94% 0.16 in 33.00 W/m2
11:08 46.9 °F 45.3 °F 30.06 in SSW 4.0 mph 14.0 mph 94% 0.14 in 28.00 W/m2
11:13 46.8 °F 45.2 °F 30.06 in SSW 8.0 mph 14.0 mph 94% 0.25 in 39.00 W/m2
11:18 46.8 °F 45.2 °F 30.07 in SSW 8.0 mph 16.0 mph 94% 0.21 in 32.00 W/m2
11:23 46.8 °F 45.2 °F 30.06 in South 6.0 mph 14.0 mph 94% 0.23 in 33.00 W/m2
11:28 46.7 °F 45.1 °F 30.05 in South 12.0 mph 18.0 mph 94% 0.15 in 44.00 W/m2
11:33 46.7 °F 45.1 °F 30.05 in South 6.0 mph 13.0 mph 94% 0.24 in 25.00 W/m2
11:38 46.7 °F 45.1 °F 30.05 in SSW 2.0 mph 15.0 mph 94% 0.16 in 39.00 W/m2
11:43 46.7 °F 45.1 °F 30.06 in SW 18.0 mph 18.0 mph 94% 0.16 in 69.00 W/m2
11:48 46.6 °F 45.0 °F 30.05 in SSE 4.0 mph 18.0 mph 94% 0.16 in 39.00 W/m2
11:53 46.6 °F 45.0 °F 30.05 in South 9.0 mph 17.0 mph 94% 0.15 in 46.00 W/m2
11:58 46.5 °F 44.9 °F 30.05 in SSE 8.0 mph 10.0 mph 94% 0.15 in 33.00 W/m2
12:03 46.5 °F 44.9 °F 30.06 in SSW 7.0 mph 16.0 mph 94% 0.17 in 23.00 W/m2
12:08 46.5 °F 44.9 °F 30.06 in WSW 6.0 mph 10.0 mph 94% 0.13 in 16.00 W/m2
12:13 46.5 °F 44.9 °F 30.05 in South 7.0 mph 16.0 mph 94% 0.17 in 37.00 W/m2
12:18 46.4 °F 44.8 °F 30.05 in Calm   8.0 mph 94% 0.19 in 44.00 W/m2
12:23 46.4 °F 44.8 °F 30.04 in SSW 12.0 mph 14.0 mph 94% 0.12 in 65.00 W/m2
12:28 46.3 °F 44.7 °F 30.04 in SSE 9.0 mph 14.0 mph 94% 0.17 in 42.00 W/m2
12:33 46.3 °F 44.7 °F 30.03 in SSE 1.0 mph 9.0 mph 94% 0.12 in 21.00 W/m2
12:38 46.3 °F 44.7 °F 30.03 in South 9.0 mph 18.0 mph 94% 0.17 in 28.00 W/m2
12:43 46.3 °F 44.7 °F 30.03 in SSE 13.0 mph 13.0 mph 94% 0.20 in 39.00 W/m2
12:48 46.2 °F 44.6 °F 30.04 in SSE 5.0 mph 16.0 mph 94% 0.18 in 32.00 W/m2
12:53 46.1 °F 44.5 °F 30.04 in SSW 9.0 mph 14.0 mph 94% 0.16 in 30.00 W/m2
12:58 46.0 °F 44.4 °F 30.04 in South 18.0 mph 18.0 mph 94% 0.22 in 47.00 W/m2
13:03 46.0 °F 44.4 °F 30.03 in South 8.0 mph 12.0 mph 94% 0.17 in 49.00 W/m2
13:08 45.9 °F 44.3 °F 30.02 in SSE 13.0 mph 19.0 mph 94% 0.12 in 46.00 W/m2
13:13 45.8 °F 44.2 °F 30.03 in SSE 10.0 mph 14.0 mph 94% 0.12 in 40.00 W/m2
13:18 45.7 °F 44.1 °F 30.02 in South 5.0 mph 14.0 mph 94% 0.12 in 40.00 W/m2
13:23 45.8 °F 44.2 °F 30.02 in South 9.0 mph 12.0 mph 94% 0.12 in 33.00 W/m2
13:28 45.7 °F 44.1 °F 30.02 in South 8.0 mph 18.0 mph 94% 0.13 in 28.00 W/m2
13:33 45.8 °F 44.2 °F 30.03 in South 7.0 mph 14.0 mph 94% 0.08 in 21.00 W/m2
13:38 45.8 °F 44.2 °F 30.02 in SSE 17.0 mph 17.0 mph 94% 0.14 in 18.00 W/m2
13:43 45.7 °F 44.1 °F 30.02 in South 8.0 mph 12.0 mph 94% 0.22 in 21.00 W/m2
13:48 45.7 °F 44.1 °F 30.02 in Calm     94% 0.27 in 16.00 W/m2
13:53 45.7 °F 44.1 °F 30.02 in SSE 10.0 mph 10.0 mph 94% 0.27 in 28.00 W/m2
13:58 45.6 °F 44.0 °F 30.01 in SSW 9.0 mph 14.0 mph 94% 0.25 in 33.00 W/m2
14:03 45.5 °F 43.9 °F 30.00 in SSE 5.0 mph 13.0 mph 94% 0.22 in 39.00 W/m2
14:08 45.5 °F 43.9 °F 30.00 in South 8.0 mph 14.0 mph 94% 0.17 in 33.00 W/m2
14:13 45.5 °F 43.9 °F 30.00 in South 4.0 mph 15.0 mph 94% 0.16 in 42.00 W/m2
14:18 45.5 °F 43.9 °F 30.02 in SSW 9.0 mph 12.0 mph 94% 0.18 in 25.00 W/m2
14:23 45.5 °F 43.9 °F 30.02 in SSE 7.0 mph 11.0 mph 94% 0.14 in 19.00 W/m2
14:28 45.5 °F 43.9 °F 30.02 in SSW 11.0 mph 19.0 mph 94% 0.23 in 32.00 W/m2
14:33 45.4 °F 43.8 °F 30.01 in South 6.0 mph 12.0 mph 94% 0.20 in 35.00 W/m2
14:34 45.4 °F 43.8 °F 30.01 in South 4.0 mph 12.0 mph 94% 0.20 in 35.00 W/m2
14:39 45.3 °F 43.7 °F 30.00 in Calm   10.0 mph 94% 0.19 in 33.00 W/m2
14:44 45.3 °F 43.7 °F 29.99 in SSE 2.0 mph 8.0 mph 94% 0.16 in 40.00 W/m2
14:49 45.3 °F 43.7 °F 29.99 in SSE 2.0 mph 11.0 mph 94% 0.20 in 21.00 W/m2
14:54 45.2 °F 43.6 °F 29.99 in SSE 8.0 mph 14.0 mph 94% 0.16 in 39.00 W/m2
14:59 45.2 °F 43.6 °F 29.98 in SSE 7.0 mph 14.0 mph 94% 0.13 in 23.00 W/m2
15:04 45.2 °F 43.6 °F 29.98 in Calm   13.0 mph 94% 0.10 in 23.00 W/m2
15:09 45.2 °F 43.6 °F 29.97 in SSE 8.0 mph 10.0 mph 94% 0.12 in 18.00 W/m2
15:14 45.2 °F 43.6 °F 29.97 in Calm   7.0 mph 94% 0.12 in 14.00 W/m2
15:19 45.2 °F 43.6 °F 29.96 in Calm     94% 0.15 in 19.00 W/m2
15:24 45.1 °F 43.5 °F 29.98 in SSE 10.0 mph 10.0 mph 94% 0.20 in 14.00 W/m2
15:29 45.1 °F 43.5 °F 30.00 in South 10.0 mph 10.0 mph 94% 0.24 in 14.00 W/m2
15:34 45.1 °F 43.5 °F 30.00 in SSE 2.0 mph 13.0 mph 94% 0.38 in 25.00 W/m2
15:39 45.1 °F 43.5 °F 29.99 in SSE 5.0 mph 9.0 mph 94% 0.34 in 25.00 W/m2
15:44 45.1 °F 43.5 °F 29.98 in Calm   11.0 mph 94% 0.25 in 25.00 W/m2
15:49 45.0 °F 43.4 °F 29.97 in SSE 4.0 mph 11.0 mph 94% 0.20 in 18.00 W/m2
15:54 45.0 °F 43.4 °F 29.97 in Calm   9.0 mph 94% 0.23 in 5.00 W/m2
15:59 45.0 °F 43.4 °F 29.99 in Calm   13.0 mph 94% 0.30 in 11.00 W/m2
16:04 45.0 °F 43.4 °F 30.00 in South 8.0 mph 11.0 mph 94% 0.29 in 16.00 W/m2
16:09 45.0 °F 43.4 °F 29.99 in SSE 5.0 mph 12.0 mph 94% 0.35 in 23.00 W/m2
16:14 45.0 °F 43.4 °F 29.99 in SW 4.0 mph 9.0 mph 94% 0.27 in 23.00 W/m2
16:19 45.0 °F 43.4 °F 29.99 in Calm   8.0 mph 94% 0.22 in 16.00 W/m2
16:24 45.0 °F 43.4 °F 29.98 in SSE 11.0 mph 11.0 mph 94% 0.22 in 11.00 W/m2
16:29 45.0 °F 43.4 °F 29.97 in SSE 8.0 mph 12.0 mph 94% 0.13 in 16.00 W/m2
16:34 45.0 °F 43.4 °F 29.97 in SSE 9.0 mph 12.0 mph 94% 0.13 in 11.00 W/m2
16:39 44.9 °F 43.3 °F 29.96 in SE 6.0 mph 15.0 mph 94% 0.13 in 12.00 W/m2
16:44 44.9 °F 43.3 °F 29.96 in Calm   9.0 mph 94% 0.10 in 7.00 W/m2
16:49 44.9 °F 43.3 °F 29.96 in South 8.0 mph 10.0 mph 94% 0.13 in 7.00 W/m2
16:54 44.9 °F 43.3 °F 29.97 in SSE 5.0 mph 12.0 mph 94% 0.19 in 5.00 W/m2
16:59 44.9 °F 43.3 °F 29.97 in SSE 14.0 mph 14.0 mph 94% 0.35 in 11.00 W/m2
17:04 44.9 °F 43.3 °F 29.97 in SSE 8.0 mph 12.0 mph 94% 0.46 in 5.00 W/m2
17:09 44.9 °F 43.3 °F 29.96 in SSE 5.0 mph 10.0 mph 94% 0.33 in 5.00 W/m2
17:14 44.9 °F 43.3 °F 29.97 in South 7.0 mph 8.0 mph 94% 0.27 in 9.00 W/m2
17:19 44.9 °F 43.3 °F 29.97 in SSE 7.0 mph 12.0 mph 94% 0.40 in 5.00 W/m2
17:24 44.9 °F 43.3 °F 29.97 in Calm   8.0 mph 94% 0.48 in 0.00 W/m2
17:34 44.9 °F 43.3 °F 29.96 in SSE 2.0 mph 10.0 mph 94% 0.39 in 0.00 W/m2
17:40 44.9 °F 43.3 °F 29.94 in Calm   12.0 mph 94% 0.39 in 0.00 W/m2
17:45 44.8 °F 43.2 °F 29.95 in Calm   9.0 mph 94% 0.18 in 0.00 W/m2
17:50 44.8 °F 43.2 °F 29.95 in Calm   11.0 mph 94% 0.40 in 0.00 W/m2
17:55 44.8 °F 43.2 °F 29.94 in SSE 7.0 mph 12.0 mph 94% 0.21 in 0.00 W/m2
18:00 44.8 °F 43.2 °F 29.95 in SE 7.0 mph 19.0 mph 94% 0.26 in 0.00 W/m2
18:05 44.8 °F 43.2 °F 29.95 in SSE 8.0 mph 13.0 mph 94% 0.31 in 0.00 W/m2
18:10 44.8 °F 43.2 °F 29.95 in South 8.0 mph 10.0 mph 94% 0.23 in 0.00 W/m2
18:15 44.8 °F 43.2 °F 29.95 in SSE 8.0 mph 12.0 mph 94% 0.22 in 0.00 W/m2
18:20 44.8 °F 43.2 °F 29.94 in SSE 8.0 mph 23.0 mph 94% 0.19 in 0.00 W/m2
18:25 44.9 °F 43.3 °F 29.94 in SSE 4.0 mph 15.0 mph 94% 0.16 in 0.00 W/m2
18:30 45.2 °F 43.9 °F 29.94 in SSE 16.0 mph 24.0 mph 95% 0.24 in 0.00 W/m2
18:35 45.6 °F 44.2 °F 29.93 in SSE 9.0 mph 23.0 mph 95% 0.15 in 0.00 W/m2
18:40 46.0 °F 44.7 °F 29.93 in SSW 2.0 mph 23.0 mph 95% 0.20 in 0.00 W/m2
18:45 46.2 °F 44.8 °F 29.94 in SSW 10.0 mph 14.0 mph 95% 0.50 in 0.00 W/m2
18:50 46.4 °F 45.0 °F 29.94 in SSW 1.0 mph 20.0 mph 95% 0.26 in 0.00 W/m2
18:55 46.6 °F 45.2 °F 29.94 in SW 13.0 mph 20.0 mph 95% 0.42 in 0.00 W/m2
19:00 46.7 °F 45.3 °F 29.93 in South 16.0 mph 17.0 mph 95% 0.25 in 0.00 W/m2
19:05 46.7 °F 45.3 °F 29.93 in SSW 16.0 mph 22.0 mph 95% 0.27 in 0.00 W/m2
19:10 46.8 °F 45.5 °F 29.92 in SSW 12.0 mph 37.0 mph 95% 0.10 in 0.00 W/m2
19:15 47.1 °F 45.7 °F 29.95 in SSW 4.0 mph 30.0 mph 95% 0.97 in 0.00 W/m2
19:20 47.3 °F 45.9 °F 29.96 in South 8.0 mph 23.0 mph 95% 0.59 in 0.00 W/m2
19:25 47.4 °F 46.0 °F 29.96 in South 22.0 mph 26.0 mph 95% 0.61 in 0.00 W/m2
19:30 47.5 °F 46.1 °F 29.96 in SSW 15.0 mph 34.0 mph 95% 0.99 in 0.00 W/m2
19:35 47.6 °F 46.2 °F 29.95 in SW 18.0 mph 24.0 mph 95% 0.72 in 0.00 W/m2
19:40 47.7 °F 46.3 °F 29.96 in SSE 16.0 mph 30.0 mph 95% 0.69 in 0.00 W/m2
19:45 47.7 °F 46.3 °F 29.95 in SSW 27.0 mph 28.0 mph 95% 0.14 in 0.00 W/m2
19:50 47.8 °F 46.4 °F 29.95 in SSW 6.0 mph 26.0 mph 95% 0.13 in 0.00 W/m2
19:55 47.9 °F 46.5 °F 29.96 in SSW 12.0 mph 43.0 mph 95% 0.20 in 0.00 W/m2
20:00 47.9 °F 46.5 °F 29.95 in SW 9.0 mph 29.0 mph 95% 0.38 in 0.00 W/m2
20:05 48.0 °F 46.6 °F 29.96 in SSW 20.0 mph 38.0 mph 95% 0.25 in 0.00 W/m2
20:10 48.1 °F 46.7 °F 29.97 in South 9.0 mph 31.0 mph 95% 0.55 in 0.00 W/m2
20:15 48.1 °F 46.7 °F 29.97 in SSW 7.0 mph 40.0 mph 95% 0.26 in 0.00 W/m2
20:20 48.1 °F 46.7 °F 29.97 in SSW 20.0 mph 33.0 mph 95% 0.47 in 0.00 W/m2
20:25 48.1 °F 46.7 °F 29.98 in South 12.0 mph 37.0 mph 95% 0.26 in 0.00 W/m2
20:30 48.1 °F 46.7 °F 29.98 in SSW 11.0 mph 32.0 mph 95% 0.16 in 0.00 W/m2
20:35 48.1 °F 46.7 °F 29.98 in SE 10.0 mph 28.0 mph 95% 0.17 in 0.00 W/m2
20:40 48.2 °F 46.8 °F 29.98 in South 14.0 mph 33.0 mph 95% 0.12 in 0.00 W/m2
20:45 48.2 °F 46.8 °F 29.99 in SW 23.0 mph 30.0 mph 95% 0.34 in 0.00 W/m2
20:50 48.2 °F 46.8 °F 29.99 in South 18.0 mph 31.0 mph 95% 0.17 in 0.00 W/m2
20:55 48.1 °F 46.7 °F 29.99 in SW 7.0 mph 34.0 mph 95% 0.14 in 0.00 W/m2
21:00 47.9 °F 46.5 °F 29.99 in SSW 9.0 mph 36.0 mph 95% 0.06 in 0.00 W/m2
21:05 47.8 °F 46.4 °F 29.99 in South 14.0 mph 38.0 mph 95% 0.04 in 0.00 W/m2
21:10 47.6 °F 46.2 °F 30.00 in SW 30.0 mph 35.0 mph 95% 0.04 in 0.00 W/m2
21:15 47.5 °F 46.1 °F 30.00 in South 21.0 mph 38.0 mph 95% 0.08 in 0.00 W/m2
21:20 47.5 °F 46.1 °F 30.00 in South 13.0 mph 28.0 mph 95% 0.28 in 0.00 W/m2
21:25 47.5 °F 46.1 °F 30.00 in SSW 18.0 mph 33.0 mph 95% 0.09 in 0.00 W/m2
21:31 47.5 °F 46.1 °F 30.00 in SSW 12.0 mph 34.0 mph 95% 0.05 in 0.00 W/m2
21:36 47.5 °F 46.1 °F 30.01 in South 17.0 mph 28.0 mph 95% 0.04 in 0.00 W/m2
21:41 47.6 °F 46.2 °F 30.01 in South 35.0 mph 35.0 mph 95% 0.00 in 0.00 W/m2
21:46 47.6 °F 46.2 °F 30.00 in SSW 10.0 mph 31.0 mph 95% 0.00 in 0.00 W/m2
21:51 47.6 °F 46.2 °F 30.01 in WSW 7.0 mph 31.0 mph 95% 0.00 in 0.00 W/m2
21:56 47.5 °F 46.1 °F 30.02 in SSE 25.0 mph 33.0 mph 95% 0.00 in 0.00 W/m2
22:01 47.6 °F 46.2 °F 30.02 in SSW 25.0 mph 33.0 mph 95% 0.00 in 0.00 W/m2
22:06 47.5 °F 46.1 °F 30.02 in SSE 15.0 mph 26.0 mph 95% 0.00 in 0.00 W/m2
22:11 47.5 °F 46.1 °F 30.02 in SSW 13.0 mph 28.0 mph 95% 0.00 in 0.00 W/m2
22:16 47.5 °F 46.1 °F 30.03 in SSW 11.0 mph 27.0 mph 95% 0.00 in 0.00 W/m2
22:21 47.5 °F 46.1 °F 30.02 in South 11.0 mph 33.0 mph 95% 0.00 in 0.00 W/m2
22:26 47.5 °F 46.1 °F 30.02 in South 7.0 mph 29.0 mph 95% 0.00 in 0.00 W/m2
22:31 47.5 °F 46.1 °F 30.03 in SW 32.0 mph 32.0 mph 95% 0.00 in 0.00 W/m2
22:36 47.5 °F 46.1 °F 30.03 in SSE 11.0 mph 34.0 mph 95% 0.00 in 0.00 W/m2
22:41 47.4 °F 46.0 °F 30.03 in SW 7.0 mph 28.0 mph 95% 0.00 in 0.00 W/m2
22:46 47.4 °F 46.0 °F 30.04 in SW 15.0 mph 26.0 mph 95% 0.00 in 0.00 W/m2
22:47 47.5 °F 46.1 °F 30.05 in SW 2.0 mph 14.0 mph 95% 0.00 in 0.00 W/m2
22:51 47.4 °F 46.0 °F 30.04 in South 32.0 mph 32.0 mph 95% 0.00 in 0.00 W/m2
22:56 47.4 °F 46.0 °F 30.04 in South 15.0 mph 25.0 mph 95% 0.00 in 0.00 W/m2
23:02 47.3 °F 45.9 °F 30.05 in South 7.0 mph 17.0 mph 95% 0.00 in 0.00 W/m2
23:07 47.3 °F 45.9 °F 30.05 in South 4.0 mph 22.0 mph 95% 0.00 in 0.00 W/m2
23:11 47.3 °F 45.9 °F 30.05 in SSE 26.0 mph 39.0 mph 95% 0.00 in 0.00 W/m2
23:17 47.2 °F 45.8 °F 30.05 in South 14.0 mph 25.0 mph 95% 0.00 in 0.00 W/m2
23:22 47.0 °F 45.7 °F 30.05 in South 9.0 mph 24.0 mph 95% 0.00 in 0.00 W/m2
23:23 46.9 °F 45.5 °F 30.06 in South 8.0 mph 24.0 mph 95% 0.00 in 0.00 W/m2
23:28 46.8 °F 45.5 °F 30.06 in South 18.0 mph 27.0 mph 95% 0.00 in 0.00 W/m2
23:33 46.8 °F 45.5 °F 30.06 in SSW 10.0 mph 29.0 mph 95% 0.00 in 0.00 W/m2
23:38 46.8 °F 45.5 °F 30.06 in SSE 15.0 mph 27.0 mph 95% 0.00 in 0.00 W/m2
23:43 46.8 °F 45.5 °F 30.06 in SW 12.0 mph 34.0 mph 95% 0.00 in 0.00 W/m2
23:48 46.8 °F 45.5 °F 30.06 in SSE 14.0 mph 26.0 mph 95% 0.00 in 0.00 W/m2
23:53 46.7 °F 45.3 °F 30.06 in SSE 13.0 mph 29.0 mph 95% 0.00 in 0.00 W/m2
23:58 46.8 °F 45.5 °F 30.06 in SW 8.0 mph 21.0 mph 95% 0.00 in 0.00 W/m2
Foresthill Weather
 WU-history PHP script courtesy of   Juneau County Weather.
powered by Cumulus v1.9.3 (1059)
Ambient Weather VWS v14.00
Top Contact Website Map Copyright © 2007 - 2018 Foresthillweather.com Never base important decisions on this or any weather information obtained from the Internet